Texas General Land Office
 Texas General Land Office
 George P. Bush, Commissioner

 Oil Spill Prevention
 & Response

Texas Automated Buoy System
Real Time Ocean Observations
Supporting Oil Spill Prevention and
Response since 1995
Geochemical and Environmental Research Group

TABS Buoy W -- Texas Automated Buoy System

TABS Buoy W Conditions at 01/22/2019 12:30 UTC (01/22/2019 06:30 CST)
28° 21.0420'N   96° 0.3480'W
AA3900 DCS - sensor depth 2m
Water Depth: 72 feet (21 meters)
Speed: 19.99 cm/s (0.39 kts) Direction: 64 °T (ENE) Water Temp: 15°C (59 °F)
System Voltage: 12.3 V Signal Strength: -1.9 dB Ping Count: 136
  


IMPORTANT: Notice to Mariners


Today's Velocity Data (download)

   Date   |  Time  |   East |   North|   Speed|  Dir | WaterT |
          |  (UTC) |  (cm/s)|  (cm/s)|  (cm/s)| (°T) |  (°C)  |
==========+========+========+========+========+======+========+
01/22/2019 05:00:00     5.63    23.62    24.28   13.4   14.9
01/22/2019 05:30:00     6.73    22.83    23.80   16.4   15.0
01/22/2019 06:00:00     7.53    23.10    24.30   18.1   15.0
01/22/2019 06:30:00     9.95    25.27    27.16   21.5   15.0
01/22/2019 07:00:00    12.07    24.28    27.11   26.4   15.0
01/22/2019 07:30:00    13.60    22.40    26.21   31.3   14.9
01/22/2019 08:00:00    18.52    19.01    26.54   44.3   14.9
01/22/2019 08:30:00    16.34    19.73    25.62   39.6   14.8
01/22/2019 09:00:00    19.27    19.69    27.55   44.4   14.8
01/22/2019 09:30:00    19.26    19.14    27.15   45.2   14.9
01/22/2019 10:00:00    19.25    17.13    25.77   48.3   14.9
01/22/2019 10:30:00    22.65    13.48    26.36   59.2   15.0
01/22/2019 11:00:00    22.18    15.07    26.82   55.8   15.0
01/22/2019 11:30:00    18.58    12.14    22.19   56.8   15.1
01/22/2019 12:00:00    18.33     5.48    19.13   73.4   15.1
01/22/2019 12:30:00    17.96     8.77    19.99   64.0   15.2



       
 

Today's Temperature - Salinity Data     (Download)


   Date   |  Time  |   Temp |   Cond |Salinity| Density|SoundVel|
          |  (UTC) |   (°C) | (ms/cm)|        | kg/m^3 |  (m/s) |
==========+========+========+========+========+========+========+
01/22/2019 05:00:00    14.98     3.41    27.13     0.00     0.00
01/22/2019 05:30:00    15.01     3.42    27.17     0.00     0.00
01/22/2019 06:00:00    15.08     3.42    27.18     0.00     0.00
01/22/2019 06:30:00    15.02     3.42    27.18     0.00     0.00
01/22/2019 07:00:00    14.96     3.41    27.16     0.00     0.00
01/22/2019 07:30:00    14.91     3.41    27.15     0.00     0.00
01/22/2019 08:00:00    14.87     3.40    27.10     0.00     0.00
01/22/2019 08:30:00    14.85     3.40    27.14     0.00     0.00
01/22/2019 09:00:00    14.90     3.41    27.20     0.00     0.00
01/22/2019 09:30:00    14.96     3.43    27.27     0.00     0.00
01/22/2019 10:00:00    14.95     3.44    27.35     0.00     0.00
01/22/2019 10:30:00    15.03     3.46    27.47     0.00     0.00
01/22/2019 11:00:00    15.12     3.48    27.59     0.00     0.00
01/22/2019 11:30:00    15.13     3.49    27.69     0.00     0.00
01/22/2019 12:00:00    15.14     3.50    27.75     0.00     0.00
01/22/2019 12:30:00    15.25     3.52    27.87     0.00     0.00